To NAV CANADA Home Page Login to a new session Search on AWWS site Feedback and Comments Disclaimer Vers la page française équivalente Tips FAQ What's new on the site To the Forecasts and Observations / NOTAM section To "File a Flight Plan" website Publications and other links Update of the User's profile FIC Telephone Numbers My Weather Data Folder Route Weather Data Regional Weather Data Local Weather Data To the Forecasts and Observations / NOTAM section
Request Generated 01/21/2017 at 02:08:54 UTC . Weather information available at that time is displayed.

METAR/TAF

OLD CROW/YT    

METAR CYOC 210200Z CCA 00000KT 20SM -SN FEW019 BKN036 BKN070 M38/M42
A2967 RMK SC1SC5AC2 SC TR CLIMAT -38.4/-43.1/TRCM/TRMWE/LAST STFD
OBS/NXT 211400Z SLP098=
METAR CYOC 210200Z 00000KT 20SM -SN FEW019 BKN036 BKN070 M38/M42
A2967 RMK SC1SC5AC2 SC TR CLIMAT -38.8/-43.1/TRCM/TRMWE/LAST STFD
OBS/NXT 211400Z SLP098=
SPECI CYOC 210133Z VRB02KT 20SM -SN FEW019 BKN036 BKN078 M39/M43
A2967 RMK ST1SC5AC2 ST TR SLP099=
METAR CYOC 210100Z VRB02KT 30SM IC FEW019 FEW036 M39/M44 A2968 RMK
ST1SC1 ST TR SC TR FROIN PRESRR SLP102=
METAR CYOC 210000Z 26002KT 30SM IC VCFG FEW019 FEW036 M39/M43 A2967
RMK ST1SC1 ST TR FROIN/VIS NE 1 1/2 SLP099=

*** REMARK        : Forecast period has ended; this was the last TAF issued
*** REMARQUE : La période de prévision est échue; ceci était le dernier TAF qui a été émis
TAF CYOC 202338Z 2100/2102 VRB03KT P6SM IC FEW020 SCT040 TEMPO
2100/2102 4SM IC BR PROB30 2100/2102 2SM IC BR
RMK NXT FCST WILL BE ISSUED AT 211545Z=
Your time UTC time
Weather data provided by Environment Canada and NAV CANADA